sensor_id;sensor_type;location;lat;lon;timestamp;temperature;humidity
26745;DHT22;14342;50.960;13.880;2024-02-15T00:00:56;10.30;99.90
26745;DHT22;14342;50.960;13.880;2024-02-15T00:02:00;10.30;99.90
26745;DHT22;14342;50.960;13.880;2024-02-15T00:03:00;10.20;99.90
26745;DHT22;14342;50.960;13.880;2024-02-15T00:04:02;10.20;99.90
26745;DHT22;14342;50.960;13.880;2024-02-15T00:05:02;10.30;99.90
26745;DHT22;14342;50.960;13.880;2024-02-15T00:06:04;10.20;99.90
26745;DHT22;14342;50.960;13.880;2024-02-15T00:07:05;10.10;99.90
26745;DHT22;14342;50.960;13.880;2024-02-15T00:08:06;10.10;99.90
26745;DHT22;14342;50.960;13.880;2024-02-15T00:09:07;10.10;99.90
26745;DHT22;14342;50.960;13.880;2024-02-15T00:10:10;10.10;99.90
26745;DHT22;14342;50.960;13.880;2024-02-15T00:11:10;10.10;99.90
26745;DHT22;14342;50.960;13.880;2024-02-15T00:12:14;10.10;99.90
26745;DHT22;14342;50.960;13.880;2024-02-15T00:13:14;10.00;99.90
26745;DHT22;14342;50.960;13.880;2024-02-15T00:14:16;9.90;99.90
26745;DHT22;14342;50.960;13.880;2024-02-15T00:15:17;9.90;99.90
26745;DHT22;14342;50.960;13.880;2024-02-15T00:16:19;9.90;99.90
26745;DHT22;14342;50.960;13.880;2024-02-15T00:17:22;10.00;99.90
26745;DHT22;14342;50.960;13.880;2024-02-15T00:18:22;10.10;99.90
26745;DHT22;14342;50.960;13.880;2024-02-15T00:19:24;10.00;99.90
26745;DHT22;14342;50.960;13.880;2024-02-15T00:20:24;10.10;99.90
26745;DHT22;14342;50.960;13.880;2024-02-15T00:21:26;10.30;99.90
26745;DHT22;14342;50.960;13.880;2024-02-15T00:22:26;10.00;99.90
26745;DHT22;14342;50.960;13.880;2024-02-15T00:23:28;10.00;99.90
26745;DHT22;14342;50.960;13.880;2024-02-15T00:24:28;9.90;99.90
26745;DHT22;14342;50.960;13.880;2024-02-15T00:25:32;10.10;99.90
26745;DHT22;14342;50.960;13.880;2024-02-15T00:26:33;9.90;99.90
26745;DHT22;14342;50.960;13.880;2024-02-15T00:27:34;9.90;99.90
26745;DHT22;14342;50.960;13.880;2024-02-15T00:28:35;9.90;99.90
26745;DHT22;14342;50.960;13.880;2024-02-15T00:29:37;9.90;99.90
26745;DHT22;14342;50.960;13.880;2024-02-15T00:30:37;9.80;99.90
26745;DHT22;14342;50.960;13.880;2024-02-15T00:31:39;9.80;99.90
26745;DHT22;14342;50.960;13.880;2024-02-15T00:32:39;9.90;99.90
26745;DHT22;14342;50.960;13.880;2024-02-15T00:33:41;9.90;99.90
26745;DHT22;14342;50.960;13.880;2024-02-15T00:34:41;9.80;99.90
26745;DHT22;14342;50.960;13.880;2024-02-15T00:35:43;9.80;99.90
26745;DHT22;14342;50.960;13.880;2024-02-15T00:36:43;9.80;99.90
26745;DHT22;14342;50.960;13.880;2024-02-15T00:37:45;9.80;99.90
26745;DHT22;14342;50.960;13.880;2024-02-15T00:38:46;9.80;99.90
26745;DHT22;14342;50.960;13.880;2024-02-15T00:39:46;9.80;99.90
26745;DHT22;14342;50.960;13.880;2024-02-15T00:40:49;9.80;99.90
26745;DHT22;14342;50.960;13.880;2024-02-15T00:41:49;9.70;99.90
26745;DHT22;14342;50.960;13.880;2024-02-15T00:42:51;9.80;99.90
26745;DHT22;14342;50.960;13.880;2024-02-15T00:43:51;9.80;99.90
26745;DHT22;14342;50.960;13.880;2024-02-15T00:44:53;9.90;99.90
26745;DHT22;14342;50.960;13.880;2024-02-15T00:45:53;9.80;99.90
26745;DHT22;14342;50.960;13.880;2024-02-15T00:46:55;9.80;99.90
26745;DHT22;14342;50.960;13.880;2024-02-15T00:47:56;9.80;99.90
26745;DHT22;14342;50.960;13.880;2024-02-15T00:48:58;9.70;99.90
26745;DHT22;14342;50.960;13.880;2024-02-15T00:50:00;10.00;99.90
26745;DHT22;14342;50.960;13.880;2024-02-15T00:51:00;9.80;99.90
26745;DHT22;14342;50.960;13.880;2024-02-15T00:52:02;9.80;99.90
26745;DHT22;14342;50.960;13.880;2024-02-15T00:53:02;9.70;99.90
26745;DHT22;14342;50.960;13.880;2024-02-15T00:54:04;9.70;99.90
26745;DHT22;14342;50.960;13.880;2024-02-15T00:55:05;9.70;99.90
26745;DHT22;14342;50.960;13.880;2024-02-15T00:56:08;9.60;99.90
26745;DHT22;14342;50.960;13.880;2024-02-15T00:57:08;9.60;99.90
26745;DHT22;14342;50.960;13.880;2024-02-15T00:58:10;9.70;99.90
26745;DHT22;14342;50.960;13.880;2024-02-15T00:59:10;9.60;99.90
26745;DHT22;14342;50.960;13.880;2024-02-15T01:00:12;9.80;99.90
26745;DHT22;14342;50.960;13.880;2024-02-15T01:01:13;9.50;99.90
26745;DHT22;14342;50.960;13.880;2024-02-15T01:02:15;9.50;99.90
26745;DHT22;14342;50.960;13.880;2024-02-15T01:03:15;9.60;99.90
26745;DHT22;14342;50.960;13.880;2024-02-15T01:04:17;9.50;99.90
26745;DHT22;14342;50.960;13.880;2024-02-15T01:05:18;9.60;99.90
26745;DHT22;14342;50.960;13.880;2024-02-15T01:06:20;9.50;99.90
26745;DHT22;14342;50.960;13.880;2024-02-15T01:07:20;9.50;99.90
26745;DHT22;14342;50.960;13.880;2024-02-15T01:08:22;9.50;99.90
26745;DHT22;14342;50.960;13.880;2024-02-15T01:09:23;9.50;99.90
26745;DHT22;14342;50.960;13.880;2024-02-15T01:10:24;9.50;99.90
26745;DHT22;14342;50.960;13.880;2024-02-15T01:11:26;9.80;99.90
26745;DHT22;14342;50.960;13.880;2024-02-15T01:12:28;9.50;99.90
26745;DHT22;14342;50.960;13.880;2024-02-15T01:13:29;9.50;99.90
26745;DHT22;14342;50.960;13.880;2024-02-15T01:14:30;9.60;99.90
26745;DHT22;14342;50.960;13.880;2024-02-15T01:15:32;9.60;99.90
26745;DHT22;14342;50.960;13.880;2024-02-15T01:16:33;9.60;99.90
26745;DHT22;14342;50.960;13.880;2024-02-15T01:17:35;9.70;99.90
26745;DHT22;14342;50.960;13.880;2024-02-15T01:18:37;9.70;99.90
26745;DHT22;14342;50.960;13.880;2024-02-15T01:19:38;9.70;99.90
26745;DHT22;14342;50.960;13.880;2024-02-15T01:20:38;10.00;99.90
26745;DHT22;14342;50.960;13.880;2024-02-15T01:21:40;9.80;99.90
26745;DHT22;14342;50.960;13.880;2024-02-15T01:22:41;9.80;99.90
26745;DHT22;14342;50.960;13.880;2024-02-15T01:23:44;9.80;99.90
26745;DHT22;14342;50.960;13.880;2024-02-15T01:24:46;9.90;99.90
26745;DHT22;14342;50.960;13.880;2024-02-15T01:25:48;10.10;99.90
26745;DHT22;14342;50.960;13.880;2024-02-15T01:26:49;10.20;99.90
26745;DHT22;14342;50.960;13.880;2024-02-15T01:27:51;10.00;99.90
26745;DHT22;14342;50.960;13.880;2024-02-15T01:28:51;10.10;99.90
26745;DHT22;14342;50.960;13.880;2024-02-15T01:29:53;10.40;99.90
26745;DHT22;14342;50.960;13.880;2024-02-15T01:30:54;10.30;99.90
26745;DHT22;14342;50.960;13.880;2024-02-15T01:31:55;10.30;99.90
26745;DHT22;14342;50.960;13.880;2024-02-15T01:32:56;10.40;99.90
26745;DHT22;14342;50.960;13.880;2024-02-15T01:33:57;10.40;99.90
26745;DHT22;14342;50.960;13.880;2024-02-15T01:34:58;10.50;99.90
26745;DHT22;14342;50.960;13.880;2024-02-15T01:35:59;10.50;99.90
26745;DHT22;14342;50.960;13.880;2024-02-15T01:37:00;10.80;99.90
26745;DHT22;14342;50.960;13.880;2024-02-15T01:38:01;10.60;99.90
26745;DHT22;14342;50.960;13.880;2024-02-15T01:39:02;10.60;99.90
26745;DHT22;14342;50.960;13.880;2024-02-15T01:40:04;10.60;99.90
26745;DHT22;14342;50.960;13.880;2024-02-15T01:41:06;10.50;99.90
26745;DHT22;14342;50.960;13.880;2024-02-15T01:42:08;10.50;99.90
26745;DHT22;14342;50.960;13.880;2024-02-15T01:43:10;10.50;99.90
26745;DHT22;14342;50.960;13.880;2024-02-15T01:44:10;10.50;99.90
26745;DHT22;14342;50.960;13.880;2024-02-15T01:45:12;10.50;99.90
26745;DHT22;14342;50.960;13.880;2024-02-15T01:46:12;10.40;99.90
26745;DHT22;14342;50.960;13.880;2024-02-15T01:47:16;10.40;99.90
26745;DHT22;14342;50.960;13.880;2024-02-15T01:48:17;10.40;99.90
26745;DHT22;14342;50.960;13.880;2024-02-15T01:49:18;10.40;99.90
26745;DHT22;14342;50.960;13.880;2024-02-15T01:50:19;10.30;99.90
26745;DHT22;14342;50.960;13.880;2024-02-15T01:51:22;10.30;99.90
26745;DHT22;14342;50.960;13.880;2024-02-15T01:52:24;10.30;99.90
26745;DHT22;14342;50.960;13.880;2024-02-15T01:53:25;10.20;99.90
26745;DHT22;14342;50.960;13.880;2024-02-15T01:54:27;10.20;99.90
26745;DHT22;14342;50.960;13.880;2024-02-15T01:55:28;10.10;99.90
26745;DHT22;14342;50.960;13.880;2024-02-15T01:56:30;10.20;99.90
26745;DHT22;14342;50.960;13.880;2024-02-15T01:57:33;10.20;99.90
26745;DHT22;14342;50.960;13.880;2024-02-15T01:58:34;10.10;99.90
26745;DHT22;14342;50.960;13.880;2024-02-15T01:59:36;10.20;99.90
26745;DHT22;14342;50.960;13.880;2024-02-15T02:00:36;10.20;99.90
26745;DHT22;14342;50.960;13.880;2024-02-15T02:01:39;10.20;99.90
26745;DHT22;14342;50.960;13.880;2024-02-15T02:02:41;10.20;99.90
26745;DHT22;14342;50.960;13.880;2024-02-15T02:03:43;10.20;99.90
26745;DHT22;14342;50.960;13.880;2024-02-15T02:04:44;10.30;99.90
26745;DHT22;14342;50.960;13.880;2024-02-15T02:05:46;10.30;99.90
26745;DHT22;14342;50.960;13.880;2024-02-15T02:06:47;10.30;99.90
26745;DHT22;14342;50.960;13.880;2024-02-15T02:07:49;10.30;99.90
26745;DHT22;14342;50.960;13.880;2024-02-15T02:08:49;10.40;99.90
26745;DHT22;14342;50.960;13.880;2024-02-15T02:09:50;10.40;99.90
26745;DHT22;14342;50.960;13.880;2024-02-15T02:10:51;10.40;99.90
26745;DHT22;14342;50.960;13.880;2024-02-15T02:11:52;10.40;99.90
26745;DHT22;14342;50.960;13.880;2024-02-15T02:12:55;10.60;99.90
26745;DHT22;14342;50.960;13.880;2024-02-15T02:13:57;10.50;99.90
26745;DHT22;14342;50.960;13.880;2024-02-15T02:14:59;10.50;99.90
26745;DHT22;14342;50.960;13.880;2024-02-15T02:15:59;10.50;99.90
26745;DHT22;14342;50.960;13.880;2024-02-15T02:17:10;10.60;99.90
26745;DHT22;14342;50.960;13.880;2024-02-15T02:18:10;10.60;99.90
26745;DHT22;14342;50.960;13.880;2024-02-15T02:19:12;10.60;99.90
26745;DHT22;14342;50.960;13.880;2024-02-15T02:20:12;10.60;99.90
26745;DHT22;14342;50.960;13.880;2024-02-15T02:21:14;10.60;99.90
26745;DHT22;14342;50.960;13.880;2024-02-15T02:22:16;10.60;99.90
26745;DHT22;14342;50.960;13.880;2024-02-15T02:23:17;11.00;99.90
26745;DHT22;14342;50.960;13.880;2024-02-15T02:24:21;10.70;99.90
26745;DHT22;14342;50.960;13.880;2024-02-15T02:25:23;10.70;99.90
26745;DHT22;14342;50.960;13.880;2024-02-15T02:26:26;10.70;99.90
26745;DHT22;14342;50.960;13.880;2024-02-15T02:27:27;10.80;99.90
26745;DHT22;14342;50.960;13.880;2024-02-15T02:28:28;10.90;99.90
26745;DHT22;14342;50.960;13.880;2024-02-15T02:29:29;10.90;99.90
26745;DHT22;14342;50.960;13.880;2024-02-15T02:30:32;10.90;99.90
26745;DHT22;14342;50.960;13.880;2024-02-15T02:31:32;10.80;99.90
26745;DHT22;14342;50.960;13.880;2024-02-15T02:32:34;10.70;99.90
26745;DHT22;14342;50.960;13.880;2024-02-15T02:33:36;10.70;99.90
26745;DHT22;14342;50.960;13.880;2024-02-15T02:34:37;10.70;99.90
26745;DHT22;14342;50.960;13.880;2024-02-15T02:35:38;10.70;99.90
26745;DHT22;14342;50.960;13.880;2024-02-15T02:36:43;10.70;99.90
26745;DHT22;14342;50.960;13.880;2024-02-15T02:37:43;10.70;99.90
26745;DHT22;14342;50.960;13.880;2024-02-15T02:38:45;10.70;99.90
26745;DHT22;14342;50.960;13.880;2024-02-15T02:39:50;11.00;99.90
26745;DHT22;14342;50.960;13.880;2024-02-15T02:40:52;10.70;99.90
26745;DHT22;14342;50.960;13.880;2024-02-15T02:41:53;10.70;99.90
26745;DHT22;14342;50.960;13.880;2024-02-15T02:42:54;10.70;99.90
26745;DHT22;14342;50.960;13.880;2024-02-15T02:43:59;10.70;99.90
26745;DHT22;14342;50.960;13.880;2024-02-15T02:44:59;10.60;99.90
26745;DHT22;14342;50.960;13.880;2024-02-15T02:46:01;10.60;99.90
26745;DHT22;14342;50.960;13.880;2024-02-15T02:47:01;10.60;99.90
26745;DHT22;14342;50.960;13.880;2024-02-15T02:48:03;10.50;99.90
26745;DHT22;14342;50.960;13.880;2024-02-15T02:49:04;10.50;99.90
26745;DHT22;14342;50.960;13.880;2024-02-15T02:50:06;10.40;99.90
26745;DHT22;14342;50.960;13.880;2024-02-15T02:51:08;10.50;99.90
26745;DHT22;14342;50.960;13.880;2024-02-15T02:52:09;10.50;99.90
26745;DHT22;14342;50.960;13.880;2024-02-15T02:53:10;10.50;99.90
26745;DHT22;14342;50.960;13.880;2024-02-15T02:54:12;10.50;99.90
26745;DHT22;14342;50.960;13.880;2024-02-15T02:55:15;10.50;99.90
26745;DHT22;14342;50.960;13.880;2024-02-15T02:56:19;10.50;99.90
26745;DHT22;14342;50.960;13.880;2024-02-15T02:57:19;10.60;99.90
26745;DHT22;14342;50.960;13.880;2024-02-15T02:58:21;10.60;99.90
26745;DHT22;14342;50.960;13.880;2024-02-15T02:59:21;10.60;99.90
26745;DHT22;14342;50.960;13.880;2024-02-15T03:00:23;10.50;99.90
26745;DHT22;14342;50.960;13.880;2024-02-15T03:01:23;10.50;99.90
26745;DHT22;14342;50.960;13.880;2024-02-15T03:02:26;10.40;99.90
26745;DHT22;14342;50.960;13.880;2024-02-15T03:03:27;10.30;99.90
26745;DHT22;14342;50.960;13.880;2024-02-15T03:04:29;10.30;99.90
26745;DHT22;14342;50.960;13.880;2024-02-15T03:05:30;10.20;99.90
26745;DHT22;14342;50.960;13.880;2024-02-15T03:06:31;10.50;99.90
26745;DHT22;14342;50.960;13.880;2024-02-15T03:07:32;10.20;99.90
26745;DHT22;14342;50.960;13.880;2024-02-15T03:08:34;10.20;99.90
26745;DHT22;14342;50.960;13.880;2024-02-15T03:09:34;10.30;99.90
26745;DHT22;14342;50.960;13.880;2024-02-15T03:10:37;10.20;99.90
26745;DHT22;14342;50.960;13.880;2024-02-15T03:11:40;10.30;99.90
26745;DHT22;14342;50.960;13.880;2024-02-15T03:12:41;10.30;99.90
26745;DHT22;14342;50.960;13.880;2024-02-15T03:13:47;10.30;99.90
26745;DHT22;14342;50.960;13.880;2024-02-15T03:14:48;10.30;99.90
26745;DHT22;14342;50.960;13.880;2024-02-15T03:15:49;10.30;99.90
26745;DHT22;14342;50.960;13.880;2024-02-15T03:16:51;10.30;99.90
26745;DHT22;14342;50.960;13.880;2024-02-15T03:17:51;10.30;99.90
26745;DHT22;14342;50.960;13.880;2024-02-15T03:18:53;10.30;99.90
26745;DHT22;14342;50.960;13.880;2024-02-15T03:19:53;10.40;99.90
26745;DHT22;14342;50.960;13.880;2024-02-15T03:20:56;10.40;99.90
26745;DHT22;14342;50.960;13.880;2024-02-15T03:21:57;10.50;99.90
26745;DHT22;14342;50.960;13.880;2024-02-15T03:22:59;10.50;99.90
26745;DHT22;14342;50.960;13.880;2024-02-15T03:24:00;10.60;99.90
26745;DHT22;14342;50.960;13.880;2024-02-15T03:25:01;10.50;99.90
26745;DHT22;14342;50.960;13.880;2024-02-15T03:26:02;10.60;99.90
26745;DHT22;14342;50.960;13.880;2024-02-15T03:27:05;10.60;99.90
26745;DHT22;14342;50.960;13.880;2024-02-15T03:28:06;10.60;99.90
26745;DHT22;14342;50.960;13.880;2024-02-15T03:29:07;10.60;99.90
26745;DHT22;14342;50.960;13.880;2024-02-15T03:30:08;10.60;99.90
26745;DHT22;14342;50.960;13.880;2024-02-15T03:31:10;10.60;99.90
26745;DHT22;14342;50.960;13.880;2024-02-15T03:32:11;10.70;99.90
26745;DHT22;14342;50.960;13.880;2024-02-15T03:33:12;10.70;99.90
26745;DHT22;14342;50.960;13.880;2024-02-15T03:34:13;10.70;99.90
26745;DHT22;14342;50.960;13.880;2024-02-15T03:35:16;10.70;99.90
26745;DHT22;14342;50.960;13.880;2024-02-15T03:36:17;10.70;99.90
26745;DHT22;14342;50.960;13.880;2024-02-15T03:37:20;10.70;99.90
26745;DHT22;14342;50.960;13.880;2024-02-15T03:38:21;10.60;99.90
26745;DHT22;14342;50.960;13.880;2024-02-15T03:39:21;10.60;99.90
26745;DHT22;14342;50.960;13.880;2024-02-15T03:40:24;10.70;99.90
26745;DHT22;14342;50.960;13.880;2024-02-15T03:41:27;10.50;99.90
26745;DHT22;14342;50.960;13.880;2024-02-15T03:42:32;10.40;99.90
26745;DHT22;14342;50.960;13.880;2024-02-15T03:43:33;10.40;99.90
26745;DHT22;14342;50.960;13.880;2024-02-15T03:44:35;10.30;99.90
26745;DHT22;14342;50.960;13.880;2024-02-15T03:45:35;10.30;99.90
26745;DHT22;14342;50.960;13.880;2024-02-15T03:46:37;10.30;99.90
26745;DHT22;14342;50.960;13.880;2024-02-15T03:47:37;10.30;99.90
26745;DHT22;14342;50.960;13.880;2024-02-15T03:48:40;10.30;99.90
26745;DHT22;14342;50.960;13.880;2024-02-15T03:49:41;10.30;99.90
26745;DHT22;14342;50.960;13.880;2024-02-15T03:50:43;10.30;99.90
26745;DHT22;14342;50.960;13.880;2024-02-15T03:51:43;10.20;99.90
26745;DHT22;14342;50.960;13.880;2024-02-15T03:52:45;10.30;99.90
26745;DHT22;14342;50.960;13.880;2024-02-15T03:53:45;10.40;99.90
26745;DHT22;14342;50.960;13.880;2024-02-15T03:54:49;10.40;99.90
26745;DHT22;14342;50.960;13.880;2024-02-15T03:55:49;10.50;99.90
26745;DHT22;14342;50.960;13.880;2024-02-15T03:56:53;10.50;99.90
26745;DHT22;14342;50.960;13.880;2024-02-15T03:57:56;10.50;99.90
26745;DHT22;14342;50.960;13.880;2024-02-15T03:58:58;10.50;99.90
26745;DHT22;14342;50.960;13.880;2024-02-15T03:59:59;10.70;99.90
26745;DHT22;14342;50.960;13.880;2024-02-15T04:01:01;10.60;99.90
26745;DHT22;14342;50.960;13.880;2024-02-15T04:02:04;10.60;99.90
26745;DHT22;14342;50.960;13.880;2024-02-15T04:03:08;10.50;99.90
26745;DHT22;14342;50.960;13.880;2024-02-15T04:04:09;10.70;99.90
26745;DHT22;14342;50.960;13.880;2024-02-15T04:05:10;10.60;99.90
26745;DHT22;14342;50.960;13.880;2024-02-15T04:06:12;10.60;99.90
26745;DHT22;14342;50.960;13.880;2024-02-15T04:07:12;10.50;99.90
26745;DHT22;14342;50.960;13.880;2024-02-15T04:08:14;10.60;99.90
26745;DHT22;14342;50.960;13.880;2024-02-15T04:09:16;10.70;99.90
26745;DHT22;14342;50.960;13.880;2024-02-15T04:10:18;10.60;99.90
26745;DHT22;14342;50.960;13.880;2024-02-15T04:11:19;10.60;99.90
26745;DHT22;14342;50.960;13.880;2024-02-15T04:12:21;10.70;99.90
26745;DHT22;14342;50.960;13.880;2024-02-15T04:13:23;10.70;99.90
26745;DHT22;14342;50.960;13.880;2024-02-15T04:14:25;10.90;99.90
26745;DHT22;14342;50.960;13.880;2024-02-15T04:15:25;11.00;99.90
26745;DHT22;14342;50.960;13.880;2024-02-15T04:16:26;10.80;99.90
26745;DHT22;14342;50.960;13.880;2024-02-15T04:17:29;10.80;99.90
26745;DHT22;14342;50.960;13.880;2024-02-15T04:18:30;10.80;99.90
26745;DHT22;14342;50.960;13.880;2024-02-15T04:19:32;10.90;99.90
26745;DHT22;14342;50.960;13.880;2024-02-15T04:20:33;10.80;99.90
26745;DHT22;14342;50.960;13.880;2024-02-15T04:21:33;10.70;99.90
26745;DHT22;14342;50.960;13.880;2024-02-15T04:22:35;10.80;99.90
26745;DHT22;14342;50.960;13.880;2024-02-15T04:23:37;10.80;99.90
26745;DHT22;14342;50.960;13.880;2024-02-15T04:24:39;10.90;99.90
26745;DHT22;14342;50.960;13.880;2024-02-15T04:25:40;10.90;99.90
26745;DHT22;14342;50.960;13.880;2024-02-15T04:26:44;10.90;99.90
26745;DHT22;14342;50.960;13.880;2024-02-15T04:27:47;11.00;99.90
26745;DHT22;14342;50.960;13.880;2024-02-15T04:28:51;10.70;99.90
26745;DHT22;14342;50.960;13.880;2024-02-15T04:29:52;10.70;99.90
26745;DHT22;14342;50.960;13.880;2024-02-15T04:30:53;10.70;99.90
26745;DHT22;14342;50.960;13.880;2024-02-15T04:31:55;10.70;99.90
26745;DHT22;14342;50.960;13.880;2024-02-15T04:32:56;10.60;99.90
26745;DHT22;14342;50.960;13.880;2024-02-15T04:33:58;10.70;99.90
26745;DHT22;14342;50.960;13.880;2024-02-15T04:34:59;10.70;99.90
26745;DHT22;14342;50.960;13.880;2024-02-15T04:36:01;10.80;99.90
26745;DHT22;14342;50.960;13.880;2024-02-15T04:37:06;10.80;99.90
26745;DHT22;14342;50.960;13.880;2024-02-15T04:38:08;10.80;99.90
26745;DHT22;14342;50.960;13.880;2024-02-15T04:39:09;10.80;99.90
26745;DHT22;14342;50.960;13.880;2024-02-15T04:40:12;11.00;99.90
26745;DHT22;14342;50.960;13.880;2024-02-15T04:41:13;10.80;99.90
26745;DHT22;14342;50.960;13.880;2024-02-15T04:42:15;10.80;99.90
26745;DHT22;14342;50.960;13.880;2024-02-15T04:43:18;10.80;99.90
26745;DHT22;14342;50.960;13.880;2024-02-15T04:44:21;10.80;99.90
26745;DHT22;14342;50.960;13.880;2024-02-15T04:45:22;10.80;99.90
26745;DHT22;14342;50.960;13.880;2024-02-15T04:46:24;11.00;99.90
26745;DHT22;14342;50.960;13.880;2024-02-15T04:47:25;11.00;99.90
26745;DHT22;14342;50.960;13.880;2024-02-15T04:48:26;10.80;99.90
26745;DHT22;14342;50.960;13.880;2024-02-15T04:49:27;10.90;99.90
26745;DHT22;14342;50.960;13.880;2024-02-15T04:50:29;10.90;99.90
26745;DHT22;14342;50.960;13.880;2024-02-15T04:51:29;11.00;99.90
26745;DHT22;14342;50.960;13.880;2024-02-15T04:52:30;11.30;99.90
26745;DHT22;14342;50.960;13.880;2024-02-15T04:53:31;11.00;99.90
26745;DHT22;14342;50.960;13.880;2024-02-15T04:54:32;11.00;99.90
26745;DHT22;14342;50.960;13.880;2024-02-15T04:55:34;11.00;99.90
26745;DHT22;14342;50.960;13.880;2024-02-15T04:56:35;11.00;99.90
26745;DHT22;14342;50.960;13.880;2024-02-15T04:57:37;10.90;99.90
26745;DHT22;14342;50.960;13.880;2024-02-15T04:58:37;10.90;99.90
26745;DHT22;14342;50.960;13.880;2024-02-15T04:59:46;10.90;99.90
26745;DHT22;14342;50.960;13.880;2024-02-15T05:00:48;11.00;99.90
26745;DHT22;14342;50.960;13.880;2024-02-15T05:01:53;10.90;99.90
26745;DHT22;14342;50.960;13.880;2024-02-15T05:02:54;11.10;99.90
26745;DHT22;14342;50.960;13.880;2024-02-15T05:03:55;10.90;99.90
26745;DHT22;14342;50.960;13.880;2024-02-15T05:04:56;10.90;99.90
26745;DHT22;14342;50.960;13.880;2024-02-15T05:05:58;11.20;99.90
26745;DHT22;14342;50.960;13.880;2024-02-15T05:06:58;10.90;99.90
26745;DHT22;14342;50.960;13.880;2024-02-15T05:07:59;11.10;99.90
26745;DHT22;14342;50.960;13.880;2024-02-15T05:09:01;10.90;99.90
26745;DHT22;14342;50.960;13.880;2024-02-15T05:10:07;11.00;99.90
26745;DHT22;14342;50.960;13.880;2024-02-15T05:11:09;11.00;99.90
26745;DHT22;14342;50.960;13.880;2024-02-15T05:12:21;10.90;99.90
26745;DHT22;14342;50.960;13.880;2024-02-15T05:13:23;10.90;99.90
26745;DHT22;14342;50.960;13.880;2024-02-15T05:14:25;10.90;99.90
26745;DHT22;14342;50.960;13.880;2024-02-15T05:15:28;10.90;99.90
26745;DHT22;14342;50.960;13.880;2024-02-15T05:16:29;11.00;99.90
26745;DHT22;14342;50.960;13.880;2024-02-15T05:17:31;10.90;99.90
26745;DHT22;14342;50.960;13.880;2024-02-15T05:18:34;11.00;99.90
26745;DHT22;14342;50.960;13.880;2024-02-15T05:19:35;10.90;99.90
26745;DHT22;14342;50.960;13.880;2024-02-15T05:20:37;10.90;99.90
26745;DHT22;14342;50.960;13.880;2024-02-15T05:21:38;10.90;99.90
26745;DHT22;14342;50.960;13.880;2024-02-15T05:22:41;10.90;99.90
26745;DHT22;14342;50.960;13.880;2024-02-15T05:23:44;10.90;99.90
26745;DHT22;14342;50.960;13.880;2024-02-15T05:24:46;10.90;99.90
26745;DHT22;14342;50.960;13.880;2024-02-15T05:25:46;10.90;99.90
26745;DHT22;14342;50.960;13.880;2024-02-15T05:26:48;10.90;99.90
26745;DHT22;14342;50.960;13.880;2024-02-15T05:27:49;10.90;99.90
26745;DHT22;14342;50.960;13.880;2024-02-15T05:28:50;10.90;99.90
26745;DHT22;14342;50.960;13.880;2024-02-15T05:29:51;10.90;99.90
26745;DHT22;14342;50.960;13.880;2024-02-15T05:32:24;10.90;99.90
26745;DHT22;14342;50.960;13.880;2024-02-15T05:33:26;11.00;99.90
26745;DHT22;14342;50.960;13.880;2024-02-15T05:34:27;11.00;99.90
26745;DHT22;14342;50.960;13.880;2024-02-15T05:35:29;11.00;99.90
26745;DHT22;14342;50.960;13.880;2024-02-15T05:36:30;11.00;99.90
26745;DHT22;14342;50.960;13.880;2024-02-15T05:37:31;11.00;99.90
26745;DHT22;14342;50.960;13.880;2024-02-15T05:38:35;11.00;99.90
26745;DHT22;14342;50.960;13.880;2024-02-15T05:39:36;11.00;99.90
26745;DHT22;14342;50.960;13.880;2024-02-15T05:40:37;10.90;99.90
26745;DHT22;14342;50.960;13.880;2024-02-15T05:41:38;10.90;99.90
26745;DHT22;14342;50.960;13.880;2024-02-15T05:42:40;11.20;99.90
26745;DHT22;14342;50.960;13.880;2024-02-15T05:43:42;10.90;99.90
26745;DHT22;14342;50.960;13.880;2024-02-15T05:44:43;10.90;99.90
26745;DHT22;14342;50.960;13.880;2024-02-15T05:45:45;10.90;99.90
26745;DHT22;14342;50.960;13.880;2024-02-15T05:46:46;11.00;99.90
26745;DHT22;14342;50.960;13.880;2024-02-15T05:47:49;11.00;99.90
26745;DHT22;14342;50.960;13.880;2024-02-15T05:48:49;11.20;99.90
26745;DHT22;14342;50.960;13.880;2024-02-15T05:49:51;11.00;99.90
26745;DHT22;14342;50.960;13.880;2024-02-15T05:50:54;11.00;99.90
26745;DHT22;14342;50.960;13.880;2024-02-15T05:51:55;11.00;99.90
26745;DHT22;14342;50.960;13.880;2024-02-15T05:52:56;11.00;99.90
26745;DHT22;14342;50.960;13.880;2024-02-15T05:53:58;11.00;99.90
26745;DHT22;14342;50.960;13.880;2024-02-15T05:54:59;11.00;99.90
26745;DHT22;14342;50.960;13.880;2024-02-15T05:56:00;11.00;99.90
26745;DHT22;14342;50.960;13.880;2024-02-15T05:57:01;11.20;99.90
26745;DHT22;14342;50.960;13.880;2024-02-15T05:58:02;11.00;99.90
26745;DHT22;14342;50.960;13.880;2024-02-15T05:59:04;11.00;99.90
26745;DHT22;14342;50.960;13.880;2024-02-15T06:00:11;11.00;99.90
26745;DHT22;14342;50.960;13.880;2024-02-15T06:01:12;11.00;99.90
26745;DHT22;14342;50.960;13.880;2024-02-15T06:02:14;11.00;99.90
26745;DHT22;14342;50.960;13.880;2024-02-15T06:03:17;11.00;99.90
26745;DHT22;14342;50.960;13.880;2024-02-15T06:04:18;11.00;99.90
26745;DHT22;14342;50.960;13.880;2024-02-15T06:05:19;11.00;99.90
26745;DHT22;14342;50.960;13.880;2024-02-15T06:06:20;11.00;99.90
26745;DHT22;14342;50.960;13.880;2024-02-15T06:07:21;11.10;99.90
26745;DHT22;14342;50.960;13.880;2024-02-15T06:08:22;11.10;99.90
26745;DHT22;14342;50.960;13.880;2024-02-15T06:09:23;11.10;99.90
26745;DHT22;14342;50.960;13.880;2024-02-15T06:10:27;11.10;99.90
26745;DHT22;14342;50.960;13.880;2024-02-15T06:11:27;11.10;99.90
26745;DHT22;14342;50.960;13.880;2024-02-15T06:12:29;11.30;99.90
26745;DHT22;14342;50.960;13.880;2024-02-15T06:13:29;11.10;99.90
26745;DHT22;14342;50.960;13.880;2024-02-15T06:14:32;11.10;99.90
26745;DHT22;14342;50.960;13.880;2024-02-15T06:15:32;11.10;99.90
26745;DHT22;14342;50.960;13.880;2024-02-15T06:16:40;11.10;99.90
26745;DHT22;14342;50.960;13.880;2024-02-15T06:17:41;11.10;99.90
26745;DHT22;14342;50.960;13.880;2024-02-15T06:18:46;11.10;99.90
26745;DHT22;14342;50.960;13.880;2024-02-15T06:19:48;11.10;99.90
26745;DHT22;14342;50.960;13.880;2024-02-15T06:20:49;11.10;99.90
26745;DHT22;14342;50.960;13.880;2024-02-15T06:21:50;11.10;99.90
26745;DHT22;14342;50.960;13.880;2024-02-15T06:22:52;11.10;99.90
26745;DHT22;14342;50.960;13.880;2024-02-15T06:23:53;11.10;99.90
26745;DHT22;14342;50.960;13.880;2024-02-15T06:24:55;11.10;99.90
26745;DHT22;14342;50.960;13.880;2024-02-15T06:25:56;11.10;99.90